createdAt,value
2023-02-26T00:00:57.081Z,88.68
2023-02-26T00:03:31.063Z,88.08
2023-02-26T00:06:04.471Z,88.33
2023-02-26T00:08:38.260Z,88.44
2023-02-26T00:11:12.241Z,89.53
2023-02-26T00:13:46.784Z,89.26
2023-02-26T00:16:28.969Z,86.35
2023-02-26T00:19:05.804Z,86.71
2023-02-26T00:21:40.267Z,86.34
2023-02-26T00:24:13.755Z,87.64
2023-02-26T00:26:47.351Z,86.77
2023-02-26T00:29:21.461Z,87.26
2023-02-26T00:31:57.159Z,87.04
2023-02-26T00:34:31.550Z,87.31
2023-02-26T00:37:14.422Z,87.21
2023-02-26T00:39:57.704Z,86.70
2023-02-26T00:42:31.489Z,87.75
2023-02-26T00:45:06.540Z,86.68
2023-02-26T00:47:49.875Z,86.75
2023-02-26T00:50:25.473Z,84.84
2023-02-26T00:53:09.738Z,87.49
2023-02-26T00:55:43.195Z,86.19
2023-02-26T00:58:16.394Z,85.94
2023-02-26T01:00:49.691Z,86.69
2023-02-26T01:03:25.089Z,87.12
2023-02-26T01:05:58.996Z,87.63
2023-02-26T01:08:41.430Z,86.95
2023-02-26T01:11:15.297Z,86.10
2023-02-26T01:13:49.530Z,88.29
2023-02-26T01:16:29.078Z,87.92
2023-02-26T01:19:15.338Z,86.65
2023-02-26T01:21:54.492Z,88.39
2023-02-26T01:24:32.155Z,87.13
2023-02-26T01:27:06.491Z,87.28
2023-02-26T01:29:40.526Z,86.87
2023-02-26T01:32:17.521Z,86.73
2023-02-26T01:34:58.961Z,87.45
2023-02-26T01:37:41.578Z,88.10
2023-02-26T01:40:34.649Z,86.27
2023-02-26T01:43:13.832Z,88.46
2023-02-26T01:45:57.020Z,86.93
2023-02-26T01:48:38.141Z,88.92
2023-02-26T01:51:13.221Z,86.92
2023-02-26T01:53:46.498Z,86.91
2023-02-26T01:56:20.948Z,87.15
2023-02-26T01:58:54.700Z,88.37
2023-02-26T02:01:28.186Z,88.01
2023-02-26T02:04:02.106Z,88.00
2023-02-26T02:06:37.976Z,88.26
2023-02-26T02:09:11.559Z,87.71
2023-02-26T02:12:01.240Z,87.92
2023-02-26T02:14:47.406Z,88.02
2023-02-26T02:17:28.749Z,88.47
2023-02-26T02:20:28.207Z,88.92
2023-02-26T02:23:12.025Z,88.22
2023-02-26T02:26:12.510Z,90.04
2023-02-26T02:29:03.340Z,89.19
2023-02-26T02:31:45.603Z,89.15
2023-02-26T02:34:23.567Z,88.25
2023-02-26T02:37:00.809Z,89.08
2023-02-26T02:39:38.672Z,88.68
2023-02-26T02:42:24.185Z,88.38
2023-02-26T02:45:01.851Z,89.18
2023-02-26T02:47:41.604Z,90.21
2023-02-26T02:50:22.273Z,89.67
2023-02-26T02:52:59.771Z,88.56
2023-02-26T02:55:38.230Z,87.72
2023-02-26T02:58:14.832Z,88.68
2023-02-26T03:00:52.704Z,89.74
2023-02-26T03:03:35.410Z,89.61
2023-02-26T03:06:08.957Z,89.31
2023-02-26T03:08:44.146Z,89.57
2023-02-26T03:11:18.255Z,89.18
2023-02-26T03:13:54.197Z,89.18
2023-02-26T03:16:48.307Z,89.49
2023-02-26T03:19:30.765Z,89.22
2023-02-26T03:22:10.224Z,89.20
2023-02-26T03:24:50.905Z,88.29
2023-02-26T03:27:30.077Z,88.17
2023-02-26T03:30:09.195Z,89.40
2023-02-26T03:32:48.293Z,89.03
2023-02-26T03:35:29.275Z,88.77
2023-02-26T03:38:06.160Z,89.35
2023-02-26T03:40:44.737Z,88.96
2023-02-26T03:43:23.389Z,89.18
2023-02-26T03:46:03.397Z,89.17
2023-02-26T03:48:37.874Z,89.23
2023-02-26T03:51:14.743Z,88.07
2023-02-26T03:53:53.350Z,90.11
2023-02-26T03:56:31.556Z,88.42
2023-02-26T03:59:05.508Z,89.09
2023-02-26T04:01:43.676Z,88.76
2023-02-26T04:04:21.682Z,88.90
2023-02-26T04:06:56.880Z,91.05
2023-02-26T04:09:30.632Z,90.07
2023-02-26T04:12:05.502Z,90.86
2023-02-26T04:14:39.364Z,93.36
2023-02-26T04:17:13.303Z,94.54
2023-02-26T04:19:47.037Z,95.16
2023-02-26T04:22:21.829Z,95.96
2023-02-26T04:24:55.222Z,96.94
2023-02-26T04:27:28.365Z,95.37
2023-02-26T04:30:01.473Z,97.43
2023-02-26T04:32:34.921Z,97.08
2023-02-26T04:35:09.938Z,97.55
2023-02-26T04:37:44.655Z,97.19
2023-02-26T04:40:18.437Z,97.46
2023-02-26T04:42:52.226Z,95.47
2023-02-26T04:45:25.421Z,95.81
2023-02-26T04:47:59.016Z,97.99
2023-02-26T04:50:32.586Z,98.19
2023-02-26T04:53:07.504Z,97.94
2023-02-26T04:55:41.385Z,98.00
2023-02-26T04:58:14.374Z,97.61
2023-02-26T05:00:49.834Z,97.51
2023-02-26T05:03:23.766Z,95.91
2023-02-26T05:05:57.254Z,95.51
2023-02-26T05:08:32.284Z,96.31
2023-02-26T05:11:05.653Z,93.36
2023-02-26T05:13:40.358Z,95.95
2023-02-26T05:16:14.205Z,96.44
2023-02-26T05:18:47.737Z,95.64
2023-02-26T05:21:22.488Z,94.38
2023-02-26T05:23:58.309Z,94.73
2023-02-26T05:26:31.838Z,94.26
2023-02-26T05:29:05.318Z,93.58
2023-02-26T05:31:38.572Z,91.48
2023-02-26T05:34:11.857Z,91.60
2023-02-26T05:36:45.749Z,91.89
2023-02-26T05:39:20.563Z,91.99
2023-02-26T05:41:55.478Z,90.32
2023-02-26T05:44:29.199Z,91.53
2023-02-26T05:47:02.542Z,90.69
2023-02-26T05:49:36.011Z,89.69
2023-02-26T05:52:09.289Z,90.22
2023-02-26T05:54:43.820Z,88.89
2023-02-26T05:57:17.336Z,89.49
2023-02-26T05:59:51.224Z,89.13
2023-02-26T06:02:24.791Z,89.09
2023-02-26T06:04:58.010Z,88.29
2023-02-26T06:07:31.195Z,88.62
2023-02-26T06:10:06.628Z,88.42
2023-02-26T06:12:40.783Z,88.73
2023-02-26T06:15:14.348Z,88.16
2023-02-26T06:17:47.680Z,87.67
2023-02-26T06:20:21.316Z,86.05
2023-02-26T06:22:54.800Z,86.72
2023-02-26T06:25:29.537Z,85.56
2023-02-26T06:28:03.609Z,84.69
2023-02-26T06:30:37.459Z,84.24
2023-02-26T06:33:11.161Z,84.05
2023-02-26T06:35:44.361Z,83.02
2023-02-26T06:38:18.600Z,83.46
2023-02-26T06:40:53.450Z,82.46
2023-02-26T06:43:27.228Z,82.75
2023-02-26T06:46:01.456Z,82.31
2023-02-26T06:48:35.252Z,81.66
2023-02-26T06:51:09.120Z,81.97
2023-02-26T06:53:42.385Z,81.93
2023-02-26T06:56:17.026Z,81.97
2023-02-26T06:58:50.414Z,81.79
2023-02-26T07:01:24.319Z,81.86
2023-02-26T07:03:57.872Z,81.88
2023-02-26T07:06:31.575Z,81.42
2023-02-26T07:09:05.185Z,80.69
2023-02-26T07:11:39.873Z,81.43
2023-02-26T07:14:13.859Z,81.69
2023-02-26T07:16:47.335Z,81.45
2023-02-26T07:19:20.559Z,81.00
2023-02-26T07:21:55.034Z,80.75
2023-02-26T07:24:28.768Z,79.95
2023-02-26T07:27:03.396Z,79.58
2023-02-26T07:29:37.052Z,79.46
2023-02-26T07:32:10.732Z,77.66
2023-02-26T07:34:44.265Z,77.99
2023-02-26T07:37:17.601Z,77.85
2023-02-26T07:39:51.276Z,78.11
2023-02-26T07:42:26.105Z,77.67
2023-02-26T07:44:59.915Z,78.29
2023-02-26T07:47:32.970Z,77.50
2023-02-26T07:50:06.913Z,78.10
2023-02-26T07:52:40.821Z,76.61
2023-02-26T07:55:14.746Z,77.45
2023-02-26T07:57:50.270Z,77.50
2023-02-26T08:00:23.908Z,78.01
2023-02-26T08:02:57.245Z,77.78
2023-02-26T08:05:31.065Z,77.31
2023-02-26T08:08:04.506Z,76.54
2023-02-26T08:10:41.920Z,76.81
2023-02-26T08:13:18.535Z,74.96
2023-02-26T08:15:52.114Z,75.60
2023-02-26T08:18:25.807Z,76.91
2023-02-26T08:20:59.262Z,76.32
2023-02-26T08:23:32.919Z,77.27
2023-02-26T08:26:08.957Z,76.68
2023-02-26T08:28:43.563Z,77.23
2023-02-26T08:31:17.236Z,75.51
2023-02-26T08:33:50.522Z,74.44
2023-02-26T08:36:24.329Z,75.09
2023-02-26T08:38:58.336Z,73.42
2023-02-26T08:41:32.707Z,73.73
2023-02-26T08:44:08.327Z,73.65
2023-02-26T08:46:41.614Z,73.32
2023-02-26T08:49:14.776Z,72.58
2023-02-26T08:51:47.965Z,72.38
2023-02-26T08:54:21.430Z,72.22
2023-02-26T08:56:57.752Z,70.92
2023-02-26T08:59:32.424Z,72.47
2023-02-26T09:02:05.946Z,71.62
2023-02-26T09:04:39.271Z,72.12
2023-02-26T09:07:12.564Z,70.66
2023-02-26T09:09:45.754Z,70.33
2023-02-26T09:12:20.308Z,69.61
2023-02-26T09:14:55.605Z,70.55
2023-02-26T09:17:28.927Z,68.90
2023-02-26T09:20:02.455Z,68.39
2023-02-26T09:22:36.694Z,69.86
2023-02-26T09:25:10.672Z,70.75
2023-02-26T09:27:44.665Z,70.33
2023-02-26T09:30:19.964Z,71.64
2023-02-26T09:32:53.230Z,71.17
2023-02-26T09:35:26.735Z,70.29
2023-02-26T09:38:00.376Z,71.49
2023-02-26T09:40:46.015Z,71.19
2023-02-26T09:43:34.884Z,70.21
2023-02-26T09:46:18.324Z,70.97
2023-02-26T09:48:55.149Z,72.02
2023-02-26T09:51:28.576Z,71.16
2023-02-26T09:54:13.354Z,70.08
2023-02-26T09:56:48.279Z,69.59
2023-02-26T09:59:21.552Z,70.72
2023-02-26T10:02:01.659Z,69.22
2023-02-26T10:04:49.566Z,67.59
2023-02-26T10:07:34.347Z,67.83
2023-02-26T10:10:20.624Z,66.25
2023-02-26T10:12:54.868Z,66.17
2023-02-26T10:15:36.025Z,66.94
2023-02-26T10:18:15.583Z,67.73
2023-02-26T10:20:55.658Z,64.75
2023-02-26T10:23:37.650Z,65.25
2023-02-26T10:26:15.023Z,64.45
2023-02-26T10:29:03.939Z,64.14
2023-02-26T10:31:44.611Z,64.42
2023-02-26T10:34:26.448Z,66.46
2023-02-26T10:37:05.755Z,65.43
2023-02-26T10:39:44.881Z,66.40
2023-02-26T10:42:24.309Z,64.12
2023-02-26T10:45:12.661Z,64.52
2023-02-26T10:47:53.973Z,64.53
2023-02-26T10:50:30.697Z,63.27
2023-02-26T10:53:05.106Z,62.91
2023-02-26T10:55:42.965Z,64.50
2023-02-26T10:58:19.108Z,64.22
2023-02-26T11:00:54.653Z,64.73
2023-02-26T11:03:33.569Z,63.35
2023-02-26T11:06:09.552Z,61.26
2023-02-26T11:08:45.624Z,61.08
2023-02-26T11:11:37.612Z,59.90
2023-02-26T11:14:12.575Z,60.10
2023-02-26T11:16:50.336Z,61.28
2023-02-26T11:19:29.393Z,62.48
2023-02-26T11:22:05.417Z,61.77
2023-02-26T11:24:41.582Z,62.42
2023-02-26T11:27:17.730Z,63.96
2023-02-26T11:30:00.597Z,63.67
2023-02-26T11:32:37.357Z,63.55
2023-02-26T11:35:16.626Z,66.29
2023-02-26T11:37:56.210Z,64.87
2023-02-26T11:40:38.423Z,62.42
2023-02-26T11:43:16.432Z,62.03
2023-02-26T11:45:55.692Z,63.67
2023-02-26T11:48:40.395Z,63.45
2023-02-26T11:51:16.866Z,63.96
2023-02-26T11:53:54.002Z,64.03
2023-02-26T11:56:31.117Z,66.20
2023-02-26T11:59:08.715Z,62.61
2023-02-26T12:01:43.194Z,64.25
2023-02-26T12:04:21.850Z,63.38
2023-02-26T12:06:57.248Z,64.03
2023-02-26T12:09:31.943Z,62.48
2023-02-26T12:12:27.127Z,61.58
2023-02-26T12:15:39.244Z,60.60
2023-02-26T12:18:43.447Z,60.98
2023-02-26T12:21:36.274Z,59.87
2023-02-26T12:24:31.848Z,60.40
2023-02-26T12:27:19.630Z,61.11
2023-02-26T12:30:08.272Z,60.97
2023-02-26T12:32:58.841Z,60.46
2023-02-26T12:35:44.760Z,61.36
2023-02-26T12:38:25.661Z,60.60
2023-02-26T12:41:20.877Z,60.18
2023-02-26T12:43:57.482Z,61.76
2023-02-26T12:46:44.945Z,62.15
2023-02-26T12:49:34.925Z,63.41
2023-02-26T12:52:40.892Z,66.05
2023-02-26T12:55:28.092Z,63.53
2023-02-26T12:58:19.342Z,64.44
2023-02-26T13:01:10.088Z,63.70
2023-02-26T13:04:23.822Z,62.57
2023-02-26T13:07:10.453Z,63.97
2023-02-26T13:09:57.396Z,59.55
2023-02-26T13:12:42.256Z,59.87
2023-02-26T13:15:30.743Z,61.69
2023-02-26T13:18:11.490Z,63.68
2023-02-26T13:21:00.535Z,62.89
2023-02-26T13:23:38.590Z,65.50
2023-02-26T13:26:14.958Z,63.05
2023-02-26T13:28:53.989Z,67.20
2023-02-26T13:31:32.481Z,64.06
2023-02-26T13:34:14.664Z,62.54
2023-02-26T13:36:49.321Z,64.09
2023-02-26T13:39:40.262Z,61.22
2023-02-26T13:42:26.594Z,63.34
2023-02-26T13:45:19.956Z,61.60
2023-02-26T13:48:05.698Z,61.15
2023-02-26T13:50:50.326Z,61.83
2023-02-26T13:53:38.044Z,62.65
2023-02-26T13:56:16.928Z,64.88
2023-02-26T13:58:54.116Z,63.87
2023-02-26T14:01:30.332Z,62.39
2023-02-26T14:04:23.863Z,64.17
2023-02-26T14:07:00.823Z,63.19
2023-02-26T14:09:46.889Z,62.44
2023-02-26T14:12:36.553Z,63.79
2023-02-26T14:15:29.570Z,62.03
2023-02-26T14:18:06.758Z,62.41
2023-02-26T14:20:40.913Z,62.02
2023-02-26T14:23:30.054Z,60.90
2023-02-26T14:26:14.632Z,62.84
2023-02-26T14:28:58.303Z,61.88
2023-02-26T14:31:51.968Z,61.74
2023-02-26T14:34:28.259Z,61.16
2023-02-26T14:37:07.088Z,61.42
2023-02-26T14:39:47.106Z,61.00
2023-02-26T14:42:24.584Z,61.09
2023-02-26T14:45:18.701Z,60.95
2023-02-26T14:47:52.379Z,62.59
2023-02-26T14:50:25.861Z,61.83
2023-02-26T14:53:34.117Z,62.54
2023-02-26T14:56:16.824Z,60.76
2023-02-26T14:59:23.822Z,62.93
2023-02-26T15:02:09.795Z,64.93
2023-02-26T15:05:13.611Z,61.61
2023-02-26T15:08:02.007Z,62.67
2023-02-26T15:10:44.891Z,61.92
2023-02-26T15:13:43.386Z,63.80
2023-02-26T15:16:33.251Z,60.92
2023-02-26T15:19:26.052Z,64.45
2023-02-26T15:22:10.807Z,62.38
2023-02-26T15:24:44.373Z,62.22
2023-02-26T15:27:20.106Z,62.83
2023-02-26T15:29:54.924Z,62.04
2023-02-26T15:32:30.715Z,63.00
2023-02-26T15:35:12.026Z,63.30
2023-02-26T15:37:50.689Z,62.82
2023-02-26T15:40:24.729Z,63.12
2023-02-26T15:42:58.707Z,64.17
2023-02-26T15:45:37.847Z,64.00
2023-02-26T15:48:15.522Z,62.99
2023-02-26T15:50:54.149Z,63.73
2023-02-26T15:53:33.136Z,63.89
2023-02-26T15:56:10.990Z,68.92
2023-02-26T15:58:47.773Z,66.34
2023-02-26T16:01:26.460Z,64.58
2023-02-26T16:04:05.926Z,65.76
2023-02-26T16:06:42.172Z,65.52
2023-02-26T16:09:21.192Z,65.35
2023-02-26T16:12:01.205Z,64.74
2023-02-26T16:14:39.595Z,64.89
2023-02-26T16:17:22.926Z,65.67
2023-02-26T16:19:59.513Z,65.62
2023-02-26T16:22:37.454Z,65.60
2023-02-26T16:25:17.357Z,66.51
2023-02-26T16:27:58.423Z,66.20
2023-02-26T16:30:35.943Z,67.25
2023-02-26T16:33:15.296Z,67.79
2023-02-26T16:35:51.028Z,68.26
2023-02-26T16:38:29.668Z,67.38
2023-02-26T16:41:10.985Z,67.34
2023-02-26T16:43:52.831Z,67.47
2023-02-26T16:46:35.722Z,68.11
2023-02-26T16:49:16.144Z,68.28
2023-02-26T16:51:50.253Z,68.33
2023-02-26T16:54:27.326Z,68.88
2023-02-26T16:57:06.850Z,69.92
2023-02-26T16:59:43.428Z,71.56
2023-02-26T17:02:20.220Z,70.93
2023-02-26T17:04:59.102Z,70.34
2023-02-26T17:07:34.797Z,69.76
2023-02-26T17:10:19.545Z,70.48
2023-02-26T17:13:02.932Z,71.03
2023-02-26T17:15:39.603Z,71.81
2023-02-26T17:18:13.808Z,71.29
2023-02-26T17:20:48.893Z,71.80
2023-02-26T17:23:24.465Z,72.31
2023-02-26T17:26:02.331Z,71.11
2023-02-26T17:28:41.030Z,70.85
2023-02-26T17:31:15.208Z,72.25
2023-02-26T17:33:48.659Z,70.97
2023-02-26T17:36:23.502Z,70.33
2023-02-26T17:38:56.783Z,70.80
2023-02-26T17:41:30.592Z,70.34
2023-02-26T17:44:04.146Z,71.53
2023-02-26T17:46:37.664Z,70.38
2023-02-26T17:49:11.921Z,71.44
2023-02-26T17:51:46.841Z,70.31
2023-02-26T17:54:20.392Z,70.66
2023-02-26T17:56:53.977Z,70.13
2023-02-26T17:59:28.725Z,71.18
2023-02-26T18:02:02.489Z,71.12
2023-02-26T18:04:36.178Z,71.25
2023-02-26T18:07:16.475Z,72.42
2023-02-26T18:09:49.901Z,72.34
2023-02-26T18:12:24.118Z,72.48
2023-02-26T18:14:57.960Z,72.47
2023-02-26T18:17:32.550Z,72.20
2023-02-26T18:20:09.500Z,72.63
2023-02-26T18:22:44.408Z,72.13
2023-02-26T18:25:18.811Z,72.87
2023-02-26T18:28:00.004Z,72.28
2023-02-26T18:30:36.417Z,72.14
2023-02-26T18:33:09.749Z,72.13
2023-02-26T18:35:45.966Z,72.73
2023-02-26T18:38:23.424Z,72.61
2023-02-26T18:40:57.184Z,72.79
2023-02-26T18:43:31.114Z,71.63
2023-02-26T18:46:04.771Z,71.58
2023-02-26T18:48:38.118Z,72.65
2023-02-26T18:51:11.680Z,71.59
2023-02-26T18:53:46.362Z,71.61
2023-02-26T18:56:20.615Z,72.13
2023-02-26T18:58:54.482Z,72.22
2023-02-26T19:01:29.882Z,72.70
2023-02-26T19:04:03.526Z,72.67
2023-02-26T19:06:37.108Z,72.62
2023-02-26T19:09:12.553Z,73.61
2023-02-26T19:11:47.533Z,73.29
2023-02-26T19:14:21.463Z,73.97
2023-02-26T19:16:55.918Z,74.07
2023-02-26T19:19:30.037Z,72.89
2023-02-26T19:22:03.660Z,73.66
2023-02-26T19:24:39.042Z,73.40
2023-02-26T19:27:14.494Z,71.75
2023-02-26T19:29:48.073Z,72.17
2023-02-26T19:32:21.705Z,72.70
2023-02-26T19:34:55.169Z,72.81
2023-02-26T19:37:28.797Z,73.60
2023-02-26T19:40:08.280Z,73.66
2023-02-26T19:42:41.654Z,73.79
2023-02-26T19:45:16.143Z,73.67
2023-02-26T19:47:50.036Z,73.87
2023-02-26T19:50:25.562Z,73.56
2023-02-26T19:52:59.528Z,73.71
2023-02-26T19:55:34.464Z,73.13
2023-02-26T19:58:08.621Z,73.71
2023-02-26T20:00:42.264Z,74.21
2023-02-26T20:03:15.708Z,74.75
2023-02-26T20:05:49.485Z,74.83
2023-02-26T20:08:25.737Z,75.15
2023-02-26T20:11:00.594Z,73.82
2023-02-26T20:13:36.214Z,73.73
2023-02-26T20:16:10.764Z,73.74
2023-02-26T20:18:45.867Z,73.79
2023-02-26T20:21:19.600Z,73.91
2023-02-26T20:23:53.280Z,73.81
2023-02-26T20:26:28.108Z,73.41
2023-02-26T20:29:01.914Z,73.24
2023-02-26T20:31:35.909Z,73.90
2023-02-26T20:34:09.104Z,74.03
2023-02-26T20:36:45.286Z,73.21
2023-02-26T20:39:19.478Z,73.68
2023-02-26T20:41:54.490Z,73.99
2023-02-26T20:44:27.988Z,73.93
2023-02-26T20:47:02.631Z,74.12
2023-02-26T20:49:36.594Z,75.47
2023-02-26T20:52:10.207Z,75.26
2023-02-26T20:54:44.869Z,75.27
2023-02-26T20:57:19.716Z,75.21
2023-02-26T20:59:53.323Z,75.43
2023-02-26T21:02:27.009Z,75.29
2023-02-26T21:05:01.196Z,74.48
2023-02-26T21:07:36.303Z,75.52
2023-02-26T21:10:12.680Z,75.56
2023-02-26T21:12:47.988Z,75.65
2023-02-26T21:15:21.761Z,75.54
2023-02-26T21:17:56.482Z,76.48
2023-02-26T21:20:30.969Z,76.46
2023-02-26T21:23:04.169Z,76.29
2023-02-26T21:25:38.528Z,77.00
2023-02-26T21:28:13.255Z,77.28
2023-02-26T21:30:46.560Z,77.33
2023-02-26T21:33:20.464Z,77.78
2023-02-26T21:35:54.566Z,77.33
2023-02-26T21:38:27.889Z,76.51
2023-02-26T21:41:01.405Z,75.72
2023-02-26T21:43:35.943Z,76.08
2023-02-26T21:46:08.987Z,75.61
2023-02-26T21:48:42.554Z,75.83
2023-02-26T21:51:16.594Z,76.00
2023-02-26T21:53:50.752Z,75.86
2023-02-26T21:56:24.479Z,75.12
2023-02-26T21:58:59.344Z,75.28
2023-02-26T22:01:33.059Z,75.56
2023-02-26T22:04:06.564Z,76.09
2023-02-26T22:06:40.005Z,76.41
2023-02-26T22:09:13.737Z,76.19
2023-02-26T22:11:49.182Z,76.00
2023-02-26T22:14:24.246Z,75.96
2023-02-26T22:16:58.632Z,76.32
2023-02-26T22:19:32.036Z,75.97
2023-02-26T22:22:05.698Z,76.25
2023-02-26T22:24:41.062Z,76.23
2023-02-26T22:27:14.275Z,76.73
2023-02-26T22:29:49.303Z,76.50
2023-02-26T22:32:22.707Z,76.60
2023-02-26T22:34:56.201Z,76.48
2023-02-26T22:37:29.889Z,76.19
2023-02-26T22:40:04.392Z,75.64
2023-02-26T22:42:37.852Z,75.97
2023-02-26T22:45:16.973Z,76.60
2023-02-26T22:47:50.575Z,75.67
2023-02-26T22:50:23.922Z,75.86
2023-02-26T22:52:57.302Z,76.12
2023-02-26T22:55:31.128Z,76.02
2023-02-26T22:58:07.835Z,76.03
2023-02-26T23:00:42.491Z,76.90
2023-02-26T23:03:16.563Z,76.78
2023-02-26T23:05:51.040Z,77.08
2023-02-26T23:08:25.790Z,76.69
2023-02-26T23:11:01.548Z,76.88
2023-02-26T23:13:36.624Z,77.53
2023-02-26T23:16:12.978Z,77.46
2023-02-26T23:18:48.117Z,78.15
2023-02-26T23:21:21.842Z,78.57
2023-02-26T23:23:56.682Z,78.57
2023-02-26T23:26:30.498Z,78.64
2023-02-26T23:29:06.322Z,79.11
2023-02-26T23:31:41.906Z,80.06
2023-02-26T23:34:15.382Z,80.49
2023-02-26T23:36:49.122Z,80.74
2023-02-26T23:39:22.527Z,80.71
2023-02-26T23:41:56.335Z,80.74
2023-02-26T23:44:29.782Z,80.65
2023-02-26T23:47:04.390Z,80.41
2023-02-26T23:49:37.541Z,81.43
2023-02-26T23:52:11.273Z,81.66
2023-02-26T23:54:45.143Z,81.68
2023-02-26T23:57:18.270Z,82.61
2023-02-26T23:59:51.579Z,82.48
